logo
Search for airport 
image banner adimage banner adimage banner ad
image banner ad

OEHR - Harad

Located in , Saudi Arabia

ICAO - OEHR, IATA -

Data provided by Airmate  

General information

Coordinates: N24°6'6" E49°13'24"
Elevation is 919 feet MSL.
 
View others Airports in Ash Sharqiyah

Operational data

Special qualification required
Current time UTC:
Current local time:
Weather at : - ( 0 km )
METAR: CYMT 202231Z AUTO 25007G18KT 7SM -SN -UP FEW009 SCT016 OVC031 01/00 A2962 RMK SLP048
View NOTAMs / SUP AIP / TFR affecting this airport [VIEW]
Communications frequencies: [VIEW]

Runways:

RWY identifierQFULength (ft)Width (ft)SurfaceLDA (ft)
16800598UNK
34800598UNK

Airport contact information

Address: Saudi Arabia

Satellite view of OEHR